Řízení letového provozu České republiky
Letiste: LKKV Aktualizace: 22.07.2019 13:30:26  UTC
 METAR LKKV 22.07. 13:30 ...
METAR LKKV 221330Z 27006KT 200V310 CAVOK 26/10 Q1024 RMK REG QNH 1020=
 TAF LKKV 22.07. 11:00 ...
TAF LKKV 221100Z 2212/2318 VRB02KT CAVOK      TEMPO 2212/2218 28009KT 9999 SCT040      BECMG 2307/2310 35007KT=